Time;durP1;ratioP1;P1;durP2;ratioP2;P2;SDS_P1;SDS_P2;PMS_P1;PMS_P2;Temp;Humidity;BMP_temperature;BMP_pressure;BME280_temperature;BME280_humidity;BME280_pressure;Samples;Min_cycle;Max_cycle;Signal;HPM_P1;HPM_P2
2021/09/13 00:00:02;;;;;;;6.23;4.53;;;14.30;99.90;;;;;;4967206;28;20604;-84
2021/09/13 00:02:29;;;;;;;7.70;4.10;;;14.20;99.90;;;;;;4967088;28;20180;-83
2021/09/13 00:04:54;;;;;;;6.27;4.40;;;14.20;99.90;;;;;;4967942;28;20208;-84
2021/09/13 00:07:20;;;;;;;6.23;4.40;;;14.20;99.90;;;;;;4970824;28;20208;-84
2021/09/13 00:09:46;;;;;;;6.53;3.87;;;14.10;99.90;;;;;;4967130;28;20176;-84
2021/09/13 00:12:11;;;;;;;5.20;4.27;;;14.10;99.90;;;;;;4966915;28;20172;-84
2021/09/13 00:14:37;;;;;;;5.07;4.40;;;14.00;99.90;;;;;;4965461;28;20168;-84
2021/09/13 00:17:02;;;;;;;7.67;4.80;;;14.00;99.90;;;;;;4966532;28;20196;-84
2021/09/13 00:19:28;;;;;;;7.03;4.30;;;14.00;99.90;;;;;;4967932;28;20644;-83
2021/09/13 00:21:53;;;;;;;6.87;4.70;;;14.00;99.90;;;;;;4969777;28;20184;-84
2021/09/13 00:24:19;;;;;;;6.93;4.87;;;13.90;99.90;;;;;;4968381;28;20188;-83
2021/09/13 00:26:45;;;;;;;4.83;4.30;;;13.90;99.90;;;;;;4967063;28;20508;-84
2021/09/13 00:29:10;;;;;;;6.53;4.70;;;13.80;99.90;;;;;;4967659;28;20223;-84
2021/09/13 00:31:37;;;;;;;8.73;4.80;;;13.80;99.90;;;;;;4967649;28;20188;-84
2021/09/13 00:34:03;;;;;;;7.37;5.00;;;13.80;99.90;;;;;;4967674;28;20215;-84
2021/09/13 00:36:28;;;;;;;5.20;4.47;;;13.80;99.90;;;;;;4967303;28;20204;-84
2021/09/13 00:38:54;;;;;;;8.67;5.23;;;13.80;99.90;;;;;;4966887;28;20189;-84
2021/09/13 00:41:20;;;;;;;7.70;4.80;;;13.80;99.90;;;;;;4967608;28;20181;-84
2021/09/13 00:43:45;;;;;;;5.50;4.70;;;13.80;99.90;;;;;;4966689;28;20184;-83
2021/09/13 00:46:11;;;;;;;6.93;4.93;;;13.80;99.90;;;;;;4965804;28;20214;-83
2021/09/13 00:48:37;;;;;;;6.60;4.60;;;13.80;99.90;;;;;;4965503;28;20709;-86
2021/09/13 00:51:02;;;;;;;5.00;4.47;;;13.70;99.90;;;;;;4966433;28;20172;-84
2021/09/13 00:53:31;;;;;;;6.63;4.33;;;13.80;99.90;;;;;;4966998;28;20187;-83
2021/09/13 00:55:56;;;;;;;5.03;4.50;;;13.70;99.90;;;;;;4967306;28;20609;-83
2021/09/13 00:58:23;;;;;;;5.10;4.60;;;13.70;99.90;;;;;;4966522;28;20702;-84
2021/09/13 01:00:48;;;;;;;7.90;5.50;;;13.60;99.90;;;;;;4966278;28;20191;-84
2021/09/13 01:03:14;;;;;;;6.30;4.93;;;13.60;99.90;;;;;;4982705;28;20168;-83
2021/09/13 01:05:39;;;;;;;6.73;4.97;;;13.50;99.90;;;;;;4966251;28;20227;-84
2021/09/13 01:08:05;;;;;;;7.23;5.30;;;13.40;99.90;;;;;;4966645;28;20196;-84
2021/09/13 01:10:30;;;;;;;6.13;5.13;;;13.40;99.90;;;;;;4967098;28;20183;-84
2021/09/13 01:12:56;;;;;;;5.47;4.23;;;13.40;99.90;;;;;;4967493;28;20183;-84
2021/09/13 01:15:22;;;;;;;5.57;4.60;;;13.30;99.90;;;;;;4967672;28;20180;-84
2021/09/13 01:17:47;;;;;;;6.90;4.83;;;13.30;99.90;;;;;;4967573;28;20207;-84
2021/09/13 01:20:13;;;;;;;5.37;4.77;;;13.30;99.90;;;;;;4966366;28;20200;-84
2021/09/13 01:22:39;;;;;;;5.73;4.73;;;13.20;99.90;;;;;;4968154;28;20181;-84
2021/09/13 01:25:05;;;;;;;5.20;4.70;;;13.20;99.90;;;;;;4966754;28;20190;-83
2021/09/13 01:27:31;;;;;;;6.33;4.90;;;13.20;99.90;;;;;;4966361;28;20298;-84
2021/09/13 01:29:57;;;;;;;7.63;5.07;;;13.30;99.90;;;;;;4966322;28;20178;-83
2021/09/13 01:32:23;;;;;;;6.90;5.07;;;13.20;99.90;;;;;;4966152;28;20180;-82
2021/09/13 01:34:48;;;;;;;8.30;5.57;;;13.10;99.90;;;;;;4966266;28;20234;-83
2021/09/13 01:37:14;;;;;;;7.60;5.20;;;13.10;99.90;;;;;;4967084;28;20665;-83
2021/09/13 01:39:40;;;;;;;8.57;5.53;;;13.10;99.90;;;;;;4966339;28;20186;-84
2021/09/13 01:42:05;;;;;;;6.17;5.03;;;13.20;99.90;;;;;;4968075;28;20184;-84
2021/09/13 01:44:31;;;;;;;6.70;4.87;;;13.10;99.90;;;;;;4971554;28;20313;-84
2021/09/13 01:46:57;;;;;;;6.27;4.93;;;13.10;99.90;;;;;;4965888;28;20208;-84
2021/09/13 01:49:22;;;;;;;8.13;5.27;;;13.10;99.90;;;;;;4965422;28;20184;-83
2021/09/13 01:51:48;;;;;;;5.57;4.90;;;13.10;99.90;;;;;;4965769;28;20180;-84
2021/09/13 01:54:14;;;;;;;7.13;5.20;;;13.00;99.90;;;;;;4965863;28;20176;-84
2021/09/13 01:56:39;;;;;;;8.67;5.00;;;13.00;99.90;;;;;;4964971;28;20196;-84
2021/09/13 01:59:05;;;;;;;5.47;4.93;;;13.10;99.90;;;;;;4965366;28;20723;-84
2021/09/13 02:01:30;;;;;;;7.10;4.90;;;13.00;99.90;;;;;;4965989;28;20177;-84
2021/09/13 02:03:56;;;;;;;7.53;4.93;;;13.00;99.90;;;;;;4965641;28;20538;-84
2021/09/13 02:06:21;;;;;;;6.13;5.07;;;12.90;99.90;;;;;;4965678;28;20196;-84
2021/09/13 02:08:47;;;;;;;5.93;5.00;;;13.00;99.90;;;;;;4965727;28;20295;-84
2021/09/13 02:11:13;;;;;;;7.33;5.63;;;12.90;99.90;;;;;;4965848;28;20239;-84
2021/09/13 02:13:38;;;;;;;7.37;5.30;;;12.90;99.90;;;;;;4965877;28;20207;-84
2021/09/13 02:16:05;;;;;;;6.87;5.47;;;12.90;99.90;;;;;;4965630;28;20195;-84
2021/09/13 02:18:31;;;;;;;7.63;5.90;;;12.90;99.90;;;;;;4965320;28;20175;-84
2021/09/13 02:20:56;;;;;;;7.50;5.97;;;12.80;99.90;;;;;;4965152;28;20180;-83
2021/09/13 02:23:22;;;;;;;6.27;5.53;;;12.80;99.90;;;;;;4965239;28;20180;-84
2021/09/13 02:25:47;;;;;;;7.37;5.97;;;12.80;99.90;;;;;;4964334;28;20182;-84
2021/09/13 02:28:13;;;;;;;5.67;5.10;;;12.80;99.90;;;;;;4964273;28;20207;-84
2021/09/13 02:30:38;;;;;;;8.20;5.60;;;12.80;99.90;;;;;;4964756;28;20176;-85
2021/09/13 02:33:04;;;;;;;7.47;5.70;;;12.70;99.90;;;;;;4964840;28;20181;-83
2021/09/13 02:35:30;;;;;;;6.60;5.30;;;12.70;99.90;;;;;;4964941;28;20209;-83
2021/09/13 02:37:55;;;;;;;6.23;5.47;;;12.70;99.90;;;;;;4966042;28;20208;-84
2021/09/13 02:40:21;;;;;;;6.20;5.27;;;12.70;99.90;;;;;;4968399;28;20180;-84
2021/09/13 02:42:48;;;;;;;7.50;5.33;;;12.60;99.90;;;;;;4968340;28;20180;-84
2021/09/13 02:45:14;;;;;;;6.00;5.40;;;12.60;99.90;;;;;;4969112;28;20207;-84
2021/09/13 02:47:40;;;;;;;8.37;5.50;;;12.60;99.90;;;;;;4967918;28;20278;-84
2021/09/13 02:50:07;;;;;;;11.07;6.53;;;12.60;99.90;;;;;;4968555;28;20275;-84
2021/09/13 02:52:33;;;;;;;7.67;5.70;;;12.60;99.90;;;;;;4968788;28;20172;-84
2021/09/13 02:54:58;;;;;;;5.97;5.23;;;12.60;99.90;;;;;;4969351;28;20177;-83
2021/09/13 02:57:24;;;;;;;6.57;5.20;;;12.50;99.90;;;;;;4969259;28;20227;-84
2021/09/13 02:59:50;;;;;;;7.57;5.73;;;12.50;99.90;;;;;;4968343;28;20184;-84
2021/09/13 03:02:15;;;;;;;6.90;5.60;;;12.50;99.90;;;;;;4968513;28;20180;-84
2021/09/13 03:04:41;;;;;;;6.50;5.37;;;12.40;99.90;;;;;;4968505;28;20259;-83
2021/09/13 03:07:07;;;;;;;6.03;5.53;;;12.40;99.90;;;;;;4967613;28;20200;-84
2021/09/13 03:09:33;;;;;;;6.00;5.27;;;12.40;99.90;;;;;;4967835;28;20172;-84
2021/09/13 03:11:59;;;;;;;8.23;5.60;;;12.40;99.90;;;;;;4967477;28;20251;-84
2021/09/13 03:14:24;;;;;;;6.30;5.70;;;12.40;99.90;;;;;;4967479;28;20562;-84
2021/09/13 03:16:51;;;;;;;7.47;5.60;;;12.30;99.90;;;;;;4967710;28;20295;-84
2021/09/13 03:19:17;;;;;;;6.43;5.43;;;12.30;99.90;;;;;;4968252;28;20180;-83
2021/09/13 03:21:44;;;;;;;8.37;5.90;;;12.30;99.90;;;;;;4984518;28;20196;-83
2021/09/13 03:24:09;;;;;;;6.47;5.70;;;12.30;99.90;;;;;;4967792;28;20203;-83
2021/09/13 03:26:35;;;;;;;7.97;5.70;;;12.30;99.90;;;;;;5012193;23;20231;-78
2021/09/13 03:29:00;;;;;;;7.57;5.80;;;12.20;99.90;;;;;;5015050;28;20661;-78
2021/09/13 03:31:26;;;;;;;7.00;5.90;;;12.30;99.90;;;;;;5015071;28;20183;-78
2021/09/13 03:33:51;;;;;;;6.93;5.77;;;12.20;99.90;;;;;;5031342;28;20176;-78
2021/09/13 03:36:17;;;;;;;8.93;6.27;;;12.30;99.90;;;;;;5014954;28;20675;-78
2021/09/13 03:38:43;;;;;;;8.30;6.30;;;12.30;99.90;;;;;;4998134;28;20176;-78
2021/09/13 03:41:09;;;;;;;7.53;5.80;;;12.30;99.90;;;;;;4998449;28;20171;-78
2021/09/13 03:43:36;;;;;;;7.60;6.00;;;12.30;99.90;;;;;;4982029;28;20179;-78
2021/09/13 03:46:03;;;;;;;7.73;6.40;;;12.30;99.90;;;;;;5001993;28;20195;-77
2021/09/13 03:48:28;;;;;;;9.43;6.50;;;12.20;99.90;;;;;;5006446;28;20207;-77
2021/09/13 03:50:54;;;;;;;9.17;6.20;;;12.20;99.90;;;;;;5006434;28;20198;-77
2021/09/13 03:53:22;;;;;;;7.10;6.23;;;12.20;99.90;;;;;;5020325;28;20214;-77
2021/09/13 03:55:48;;;;;;;10.50;6.10;;;12.20;99.90;;;;;;4982275;28;20199;-77
2021/09/13 03:58:14;;;;;;;9.63;7.00;;;12.20;99.90;;;;;;4998256;28;20182;-78
2021/09/13 04:00:40;;;;;;;8.17;7.00;;;12.20;99.90;;;;;;4981769;28;20248;-77
2021/09/13 04:03:10;;;;;;;8.03;7.17;;;12.30;99.90;;;;;;4998000;28;20649;-78
2021/09/13 04:05:42;;;;;;;7.90;6.90;;;12.30;99.90;;;;;;4982633;28;20721;-77
2021/09/13 04:08:32;;;;;;;7.57;6.83;;;12.20;99.90;;;;;;4998572;28;20215;-77
2021/09/13 04:13:23;;;;;;;7.73;6.63;;;12.20;99.90;;;;;;5013820;28;20243;-77
2021/09/13 04:15:50;;;;;;;9.67;6.67;;;12.20;99.90;;;;;;5013626;28;20693;-77
2021/09/13 04:18:16;;;;;;;9.60;7.33;;;12.20;99.90;;;;;;4997801;28;20176;-78
2021/09/13 04:20:42;;;;;;;7.53;6.73;;;12.20;99.90;;;;;;4997640;28;20271;-78
2021/09/13 04:23:08;;;;;;;7.43;6.43;;;12.20;99.90;;;;;;4997538;28;20186;-77
2021/09/13 04:25:34;;;;;;;8.47;7.10;;;12.20;99.90;;;;;;4997052;28;20219;-78
2021/09/13 04:28:00;;;;;;;10.67;7.17;;;12.10;99.90;;;;;;4981229;28;20211;-77
2021/09/13 04:30:27;;;;;;;8.20;7.27;;;12.10;99.90;;;;;;4997335;28;20230;-78
2021/09/13 04:32:53;;;;;;;8.97;6.27;;;12.10;99.90;;;;;;4997598;28;20171;-78
2021/09/13 04:35:19;;;;;;;9.03;6.80;;;12.10;99.90;;;;;;4980723;28;20275;-78
2021/09/13 04:37:45;;;;;;;7.60;6.80;;;12.10;99.90;;;;;;4981050;28;20760;-78
2021/09/13 04:40:13;;;;;;;9.90;7.17;;;12.10;99.90;;;;;;4996801;28;20234;-78
2021/09/13 04:42:40;;;;;;;8.37;6.50;;;12.10;99.90;;;;;;4997811;28;20172;-77
2021/09/13 04:45:06;;;;;;;7.53;6.77;;;12.00;99.90;;;;;;5013383;28;20663;-78
2021/09/13 04:47:32;;;;;;;8.60;7.00;;;12.10;99.90;;;;;;4996610;28;20693;-78
2021/09/13 04:50:00;;;;;;;7.57;6.77;;;12.00;99.90;;;;;;5014555;28;20179;-77
2021/09/13 04:52:25;;;;;;;9.07;7.20;;;12.00;99.90;;;;;;4985560;28;20435;-78
2021/09/13 04:54:51;;;;;;;8.97;6.70;;;12.00;99.90;;;;;;4978739;28;20307;-78
2021/09/13 04:57:18;;;;;;;7.90;7.10;;;12.00;99.90;;;;;;4995644;28;20184;-78
2021/09/13 04:59:46;;;;;;;8.97;7.17;;;12.00;99.90;;;;;;4978596;28;20184;-78
2021/09/13 05:02:12;;;;;;;10.57;7.00;;;12.00;99.90;;;;;;4979221;28;20615;-78
2021/09/13 05:04:38;;;;;;;7.40;6.70;;;12.10;99.90;;;;;;4962188;28;20180;-78
2021/09/13 05:07:04;;;;;;;9.00;6.77;;;12.00;99.90;;;;;;4969693;28;20234;-78
2021/09/13 05:09:30;;;;;;;9.00;7.23;;;12.00;99.90;;;;;;4998100;28;20176;-78
2021/09/13 05:11:56;;;;;;;7.23;6.47;;;12.00;99.90;;;;;;4981889;28;20256;-78
2021/09/13 05:14:22;;;;;;;8.90;6.63;;;12.00;99.90;;;;;;5014295;28;20207;-78
2021/09/13 05:16:48;;;;;;;9.13;6.57;;;12.00;99.90;;;;;;4998040;28;20294;-78
2021/09/13 05:19:13;;;;;;;8.17;6.50;;;12.00;99.90;;;;;;5000033;28;20207;-77
2021/09/13 05:21:41;;;;;;;8.37;5.77;;;12.00;99.90;;;;;;5023382;28;20258;-77
2021/09/13 05:24:06;;;;;;;7.73;6.83;;;12.00;99.90;;;;;;5017176;28;20808;-78
2021/09/13 05:26:32;;;;;;;8.20;7.30;;;12.00;99.90;;;;;;4992066;28;20250;-77
2021/09/13 05:28:59;;;;;;;8.33;7.47;;;12.10;99.90;;;;;;5009693;28;20256;-78
2021/09/13 05:31:25;;;;;;;8.80;7.03;;;12.10;99.90;;;;;;4985705;28;20271;-79
2021/09/13 05:33:51;;;;;;;9.40;7.53;;;12.10;99.90;;;;;;4995235;28;20203;-78
2021/09/13 05:36:17;;;;;;;9.60;7.30;;;12.10;99.90;;;;;;4995520;28;20218;-75
2021/09/13 05:38:44;;;;;;;8.90;7.50;;;12.10;99.90;;;;;;4985693;28;20192;-79
2021/09/13 05:41:12;;;;;;;11.97;8.23;;;12.20;99.90;;;;;;4989961;28;20172;-79
2021/09/13 05:43:38;;;;;;;11.90;7.47;;;12.20;99.90;;;;;;4983918;28;20188;-78
2021/09/13 05:46:03;;;;;;;10.70;8.67;;;12.20;99.90;;;;;;4971895;28;20689;-79
2021/09/13 05:48:29;;;;;;;9.80;8.03;;;12.30;99.90;;;;;;4997597;28;20195;-79
2021/09/13 05:50:55;;;;;;;11.13;8.53;;;12.40;99.90;;;;;;4989772;28;20190;-78
2021/09/13 05:53:22;;;;;;;12.50;8.07;;;12.40;99.90;;;;;;4967153;28;20282;-77
2021/09/13 05:55:48;;;;;;;10.23;8.73;;;12.40;99.90;;;;;;4995035;28;20214;-76
2021/09/13 05:58:14;;;;;;;11.83;8.03;;;12.50;99.90;;;;;;4995152;28;20176;-76
2021/09/13 06:00:39;;;;;;;11.43;7.97;;;12.50;99.90;;;;;;4978506;28;20190;-76
2021/09/13 06:03:08;;;;;;;12.67;8.53;;;12.60;99.90;;;;;;4979008;28;20671;-76
2021/09/13 06:05:35;;;;;;;10.17;8.27;;;12.80;99.90;;;;;;4995277;28;20200;-75
2021/09/13 06:08:02;;;;;;;10.87;8.10;;;12.80;99.90;;;;;;4994896;28;20207;-77
2021/09/13 06:10:27;;;;;;;10.27;8.10;;;12.90;99.90;;;;;;4978411;28;20240;-76
2021/09/13 06:12:53;;;;;;;11.90;8.33;;;13.10;99.90;;;;;;4994367;28;20262;-77
2021/09/13 06:15:18;;;;;;;9.87;8.37;;;13.20;99.90;;;;;;4995186;28;20207;-78
2021/09/13 06:17:44;;;;;;;10.53;8.30;;;13.50;99.90;;;;;;4995309;28;20175;-78
2021/09/13 06:20:10;;;;;;;10.27;7.97;;;13.70;99.90;;;;;;4996420;28;20186;-80
2021/09/13 06:22:36;;;;;;;10.40;8.00;;;13.80;99.90;;;;;;4980429;28;20179;-79
2021/09/13 06:25:02;;;;;;;11.33;8.20;;;14.10;99.90;;;;;;4996178;28;20238;-78
2021/09/13 06:27:29;;;;;;;9.47;7.87;;;14.30;99.90;;;;;;5013485;28;20261;-79
2021/09/13 06:29:56;;;;;;;9.33;7.60;;;14.40;99.90;;;;;;5012394;28;20721;-78
2021/09/13 06:32:22;;;;;;;10.33;7.87;;;14.60;99.90;;;;;;4999951;28;20556;-76
2021/09/13 06:34:48;;;;;;;8.50;7.57;;;14.80;99.90;;;;;;5010849;28;20250;-77
2021/09/13 06:37:13;;;;;;;9.27;7.70;;;15.20;99.90;;;;;;4995183;28;20662;-76
2021/09/13 06:39:39;;;;;;;8.67;7.27;;;15.90;99.90;;;;;;4978408;28;20184;-75
2021/09/13 06:42:05;;;;;;;8.77;6.87;;;16.60;99.90;;;;;;4995263;28;20218;-77
2021/09/13 06:44:31;;;;;;;9.13;7.00;;;17.20;99.90;;;;;;4995406;28;20563;-78
2021/09/13 06:47:10;;;;;;;9.53;6.87;;;17.90;99.90;;;;;;4995216;28;20686;-75
2021/09/13 06:49:36;;;;;;;7.10;6.40;;;18.50;99.90;;;;;;5028121;28;20204;-78
2021/09/13 06:52:03;;;;;;;7.03;5.90;;;18.90;99.90;;;;;;4996043;28;20177;-78
2021/09/13 06:54:28;;;;;;;7.97;5.73;;;19.30;99.90;;;;;;4980948;28;20266;-77
2021/09/13 06:56:55;;;;;;;7.13;6.43;;;19.10;99.90;;;;;;4994313;28;20307;-76
2021/09/13 06:59:21;;;;;;;8.53;6.33;;;18.50;99.90;;;;;;4975971;28;20561;-76
2021/09/13 07:01:47;;;;;;;12.57;7.07;;;18.10;99.90;;;;;;4976189;28;20333;-76
2021/09/13 07:04:12;;;;;;;8.53;6.57;;;17.80;99.90;;;;;;4976226;28;20184;-76
2021/09/13 07:06:38;;;;;;;8.07;6.63;;;17.60;99.90;;;;;;4993969;28;20575;-76
2021/09/13 07:09:03;;;;;;;7.83;6.90;;;17.40;99.90;;;;;;5008743;28;20183;-76
2021/09/13 07:11:29;;;;;;;9.50;6.83;;;17.20;99.90;;;;;;5008687;28;20183;-76
2021/09/13 07:13:56;;;;;;;8.60;6.70;;;17.00;99.90;;;;;;5009003;28;20231;-76
2021/09/13 07:16:22;;;;;;;9.83;7.47;;;16.90;99.90;;;;;;4993144;28;20191;-76
2021/09/13 07:18:48;;;;;;;9.83;6.97;;;16.90;99.90;;;;;;5010492;28;20172;-76
2021/09/13 07:21:14;;;;;;;9.50;7.27;;;16.90;99.90;;;;;;5010566;28;20172;-77
2021/09/13 07:23:40;;;;;;;7.40;6.23;;;17.00;99.90;;;;;;4995342;28;20544;-77
2021/09/13 07:26:06;;;;;;;9.27;6.87;;;17.20;99.90;;;;;;4996854;28;20782;-77
2021/09/13 07:28:32;;;;;;;7.47;6.03;;;17.40;99.90;;;;;;4994383;28;20742;-76
2021/09/13 07:30:58;;;;;;;10.50;6.37;;;17.40;99.90;;;;;;4990793;28;20176;-78
2021/09/13 07:33:24;;;;;;;7.43;6.10;;;17.50;99.90;;;;;;5008220;28;20552;-81
2021/09/13 07:35:50;;;;;;;8.77;6.10;;;17.60;99.90;;;;;;4986961;28;20235;-79
2021/09/13 07:38:16;;;;;;;7.63;6.10;;;17.70;99.90;;;;;;4985708;28;20183;-76
2021/09/13 07:40:42;;;;;;;8.40;6.20;;;17.90;99.90;;;;;;5014721;28;20677;-77
2021/09/13 07:43:09;;;;;;;7.83;5.37;;;18.00;99.90;;;;;;4998087;28;20207;-77
2021/09/13 07:45:35;;;;;;;5.70;5.10;;;18.10;99.90;;;;;;4996611;28;20281;-78
2021/09/13 07:48:01;;;;;;;6.10;5.20;;;18.10;99.90;;;;;;4997182;28;20675;-77
2021/09/13 07:50:27;;;;;;;9.07;5.60;;;18.20;99.90;;;;;;4993117;28;20191;-77
2021/09/13 07:52:52;;;;;;;7.13;5.20;;;18.40;99.90;;;;;;4978590;28;20183;-77
2021/09/13 07:55:18;;;;;;;7.10;5.57;;;18.40;99.90;;;;;;4995869;28;20242;-77
2021/09/13 07:57:43;;;;;;;7.60;5.17;;;18.60;99.90;;;;;;4979444;28;20262;-78
2021/09/13 08:00:09;;;;;;;6.20;4.87;;;18.80;99.90;;;;;;4996719;28;20214;-78
2021/09/13 08:02:35;;;;;;;6.77;4.77;;;18.70;99.90;;;;;;5001825;28;20191;-77
2021/09/13 08:05:01;;;;;;;7.43;4.43;;;18.80;99.90;;;;;;5014569;28;20203;-77
2021/09/13 08:07:27;;;;;;;6.53;4.83;;;19.00;99.90;;;;;;4998130;28;20203;-77
2021/09/13 08:09:54;;;;;;;6.20;5.50;;;19.20;99.90;;;;;;4981719;28;20650;-77
2021/09/13 08:12:19;;;;;;;8.03;5.37;;;19.30;99.90;;;;;;4998046;28;20186;-78
2021/09/13 08:14:45;;;;;;;6.30;5.27;;;19.40;99.90;;;;;;4981600;28;20180;-77
2021/09/13 08:17:11;;;;;;;6.90;4.40;;;19.60;99.90;;;;;;4981443;28;20191;-78
2021/09/13 08:19:40;;;;;;;5.87;4.30;;;19.70;99.90;;;;;;4998156;28;20179;-76
2021/09/13 08:22:09;;;;;;;8.00;4.37;;;20.10;99.90;;;;;;4982730;28;20207;-78
2021/09/13 08:24:35;;;;;;;5.63;4.20;;;20.40;99.90;;;;;;5000210;28;20559;-76
2021/09/13 08:27:01;;;;;;;7.83;4.60;;;20.60;99.90;;;;;;4981430;28;20211;-78
2021/09/13 08:29:26;;;;;;;6.03;4.40;;;20.60;99.90;;;;;;4997422;28;20185;-78
2021/09/13 08:31:53;;;;;;;4.90;3.97;;;20.70;99.90;;;;;;4997580;28;20180;-78
2021/09/13 08:34:19;;;;;;;4.63;3.90;;;20.70;99.90;;;;;;4997948;28;20183;-78
2021/09/13 08:36:45;;;;;;;6.30;3.93;;;20.60;99.90;;;;;;4996735;28;20210;-76
2021/09/13 08:39:13;;;;;;;6.10;4.10;;;20.60;99.90;;;;;;4980878;28;20179;-78
2021/09/13 08:41:39;;;;;;;5.87;3.80;;;20.40;99.90;;;;;;5013219;28;20579;-77
2021/09/13 08:44:05;;;;;;;4.33;3.80;;;20.30;99.90;;;;;;4995328;28;20187;-78
2021/09/13 08:49:10;;;;;;;4.13;2.30;;;20.80;99.90;;;;;;4998614;28;20262;-78
2021/09/13 08:51:37;;;;;;;3.40;2.50;;;21.20;99.90;;;;;;4992721;28;20234;-78
2021/09/13 08:54:06;;;;;;;3.97;2.17;;;21.50;99.90;;;;;;4986980;28;20180;-77
2021/09/13 08:56:39;;;;;;;6.00;1.83;;;21.40;99.90;;;;;;4972436;28;20251;-77
2021/09/13 08:59:06;;;;;;;4.27;2.33;;;21.40;99.90;;;;;;4997886;28;20226;-77
2021/09/13 09:01:33;;;;;;;2.93;2.00;;;21.50;99.90;;;;;;4997207;28;20175;-77
2021/09/13 09:04:00;;;;;;;2.77;1.30;;;21.20;99.90;;;;;;4997327;28;20230;-77
2021/09/13 09:06:30;;;;;;;3.10;1.40;;;20.90;99.90;;;;;;4985036;28;20572;-76
2021/09/13 09:09:07;;;;;;;2.60;1.50;;;20.70;99.90;;;;;;5012200;28;20209;-77
2021/09/13 09:11:54;;;;;;;3.00;1.33;;;20.90;99.90;;;;;;4994193;28;20183;-76
2021/09/13 09:14:33;;;;;;;2.57;1.37;;;21.10;99.90;;;;;;4992524;28;20192;-76
2021/09/13 09:17:07;;;;;;;2.50;1.60;;;21.00;99.90;;;;;;4992874;28;20172;-75
2021/09/13 09:19:34;;;;;;;3.70;1.47;;;20.70;99.90;;;;;;4992254;28;20180;-77
2021/09/13 09:22:19;;;;;;;2.13;1.20;;;20.40;99.90;;;;;;4976356;28;20244;-77
2021/09/13 09:24:48;;;;;;;2.53;1.20;;;20.00;99.90;;;;;;4992630;28;20182;-77
2021/09/13 09:27:14;;;;;;;3.80;1.13;;;19.90;99.90;;;;;;4976121;28;20208;-77
2021/09/13 09:29:40;;;;;;;3.50;1.30;;;19.80;99.90;;;;;;4975878;28;20207;-77
2021/09/13 09:32:06;;;;;;;1.87;1.17;;;20.00;99.90;;;;;;4976259;28;20202;-77
2021/09/13 09:34:33;;;;;;;1.80;1.00;;;20.10;99.90;;;;;;5001297;28;20254;-77
2021/09/13 09:37:04;;;;;;;2.50;0.90;;;20.40;99.90;;;;;;5005016;28;20267;-77
2021/09/13 09:39:31;;;;;;;3.47;1.03;;;20.60;99.90;;;;;;4993191;28;20263;-77
2021/09/13 09:41:57;;;;;;;3.03;1.00;;;21.10;99.90;;;;;;4991386;28;20187;-76
2021/09/13 09:44:23;;;;;;;3.47;0.90;;;21.30;99.90;;;;;;4979014;28;20176;-77
2021/09/13 09:46:49;;;;;;;1.90;0.80;;;21.40;99.90;;;;;;4994526;28;20294;-77
2021/09/13 09:49:20;;;;;;;3.63;1.47;;;21.50;99.90;;;;;;5011469;28;20259;-77
2021/09/13 09:51:50;;;;;;;2.50;1.10;;;21.60;99.90;;;;;;4965255;28;20180;-78
2021/09/13 09:54:21;;;;;;;2.80;1.20;;;21.80;99.90;;;;;;4994494;28;20172;-77
2021/09/13 09:56:58;;;;;;;3.70;1.03;;;21.90;99.90;;;;;;4980761;28;20211;-77
2021/09/13 09:59:24;;;;;;;2.77;1.40;;;21.80;99.90;;;;;;4977395;28;20199;-78
2021/09/13 10:01:53;;;;;;;3.37;1.30;;;21.70;99.90;;;;;;4983438;28;20549;-76
2021/09/13 10:04:21;;;;;;;2.50;1.03;;;21.20;99.90;;;;;;4983775;28;20180;-76
2021/09/13 10:06:52;;;;;;;3.10;1.13;;;20.80;99.90;;;;;;5005889;28;20218;-77
2021/09/13 10:09:18;;;;;;;1.90;1.30;;;20.50;99.90;;;;;;5011341;28;20564;-77
2021/09/13 10:11:44;;;;;;;1.97;1.53;;;20.40;99.90;;;;;;4996671;28;20547;-77
2021/09/13 10:14:12;;;;;;;3.20;1.70;;;20.40;99.90;;;;;;4975622;28;20187;-77
2021/09/13 10:16:40;;;;;;;2.50;1.57;;;20.30;99.90;;;;;;4975875;28;20621;-77
2021/09/13 10:19:07;;;;;;;3.97;1.70;;;20.30;99.90;;;;;;4975779;28;20176;-77
2021/09/13 10:21:33;;;;;;;2.93;1.73;;;20.30;99.90;;;;;;4991980;28;20176;-77
2021/09/13 10:24:02;;;;;;;1.93;1.53;;;20.30;99.90;;;;;;4977410;28;20239;-78
2021/09/13 10:26:29;;;;;;;2.87;1.83;;;20.30;99.90;;;;;;4961952;28;20223;-78
2021/09/13 10:29:01;;;;;;;2.80;1.53;;;20.40;99.90;;;;;;4977053;28;20174;-77
2021/09/13 10:31:42;;;;;;;3.50;1.50;;;20.30;99.90;;;;;;4994228;28;20176;-77
2021/09/13 10:34:40;;;;;;;2.33;1.50;;;20.10;99.90;;;;;;4992673;28;20180;-77
2021/09/13 10:37:16;;;;;;;1.90;1.30;;;20.10;99.90;;;;;;4960334;28;20188;-77
2021/09/13 10:40:01;;;;;;;2.20;1.50;;;20.10;99.90;;;;;;4976863;28;20195;-77
2021/09/13 10:42:40;;;;;;;2.90;1.40;;;20.00;99.90;;;;;;4993115;28;20206;-77
2021/09/13 10:45:28;;;;;;;3.63;1.30;;;20.00;99.90;;;;;;4992317;28;20197;-77
2021/09/13 10:47:57;;;;;;;2.77;1.20;;;19.90;99.90;;;;;;4992065;28;20196;-78
2021/09/13 10:50:41;;;;;;;2.83;1.60;;;20.00;99.90;;;;;;4992137;28;20204;-77
2021/09/13 10:53:22;;;;;;;2.80;1.27;;;20.00;99.90;;;;;;4977141;28;20651;-77
2021/09/13 10:55:49;;;;;;;3.17;1.30;;;20.30;99.90;;;;;;4992460;28;20200;-78
2021/09/13 10:58:19;;;;;;;3.27;1.30;;;20.50;99.90;;;;;;4993111;28;20271;-77
2021/09/13 11:00:45;;;;;;;1.97;1.10;;;20.70;99.90;;;;;;4979474;28;20195;-77
2021/09/13 11:03:28;;;;;;;3.70;1.20;;;20.80;99.90;;;;;;4995985;28;20176;-76
2021/09/13 11:06:17;;;;;;;2.23;1.00;;;20.90;99.90;;;;;;4994882;28;20208;-76
2021/09/13 11:08:53;;;;;;;1.93;1.10;;;21.10;99.90;;;;;;4996547;28;20208;-76
2021/09/13 11:11:21;;;;;;;0.83;0.60;;;21.10;99.90;;;;;;4963606;28;20172;-76
2021/09/13 11:14:01;;;;;;;1.50;0.97;;;21.20;99.90;;;;;;4996509;28;20176;-76
2021/09/13 11:16:27;;;;;;;1.17;0.70;;;21.10;99.90;;;;;;5014447;28;20265;-76
2021/09/13 11:18:54;;;;;;;1.63;0.90;;;21.00;99.90;;;;;;4997917;28;20233;-77
2021/09/13 11:21:31;;;;;;;3.30;1.13;;;21.10;99.90;;;;;;4998010;28;20233;-76
2021/09/13 11:23:59;;;;;;;1.47;0.70;;;21.30;99.90;;;;;;5015317;28;20198;-76
2021/09/13 11:26:36;;;;;;;1.93;0.80;;;21.50;99.90;;;;;;4994452;28;20208;-76
2021/09/13 11:29:03;;;;;;;1.00;0.63;;;21.70;99.90;;;;;;4994336;28;20654;-77
2021/09/13 11:31:35;;;;;;;1.90;0.90;;;21.80;99.90;;;;;;5015484;28;20254;-77
2021/09/13 11:34:06;;;;;;;1.87;0.77;;;21.90;99.90;;;;;;5016517;28;20183;-82
2021/09/13 11:36:32;;;;;;;1.23;0.60;;;21.90;99.90;;;;;;4998299;28;20206;-81
2021/09/13 11:39:06;;;;;;;1.70;0.80;;;22.20;99.90;;;;;;5019935;28;20182;-79
2021/09/13 11:41:32;;;;;;;1.57;0.83;;;22.30;99.90;;;;;;5020389;28;20193;-82
2021/09/13 11:44:06;;;;;;;1.37;0.70;;;22.40;99.90;;;;;;5020311;28;20270;-81
2021/09/13 11:46:50;;;;;;;2.00;0.90;;;22.50;99.90;;;;;;5019882;28;20199;-80
2021/09/13 11:49:20;;;;;;;2.00;0.70;;;22.50;99.90;;;;;;5022624;28;20185;-82
2021/09/13 11:52:06;;;;;;;1.50;0.70;;;22.40;99.90;;;;;;5020030;28;20225;-82
2021/09/13 11:54:38;;;;;;;1.30;0.60;;;22.50;99.90;;;;;;5019925;28;20202;-81
2021/09/13 11:57:04;;;;;;;1.43;0.67;;;22.50;99.90;;;;;;5020380;28;20179;-80
2021/09/13 11:59:30;;;;;;;2.03;0.60;;;22.70;99.90;;;;;;5019895;28;20183;-82
2021/09/13 12:02:02;;;;;;;1.60;0.60;;;22.90;99.90;;;;;;5021395;28;20219;-83
2021/09/13 12:04:30;;;;;;;1.63;0.77;;;23.00;99.90;;;;;;5014638;28;20183;-83
2021/09/13 12:07:09;;;;;;;2.25;0.60;;;23.00;99.90;;;;;;5017316;28;20702;-82
2021/09/13 12:09:37;;;;;;;1.63;0.80;;;23.00;99.90;;;;;;4983952;28;20183;-81
2021/09/13 12:12:03;;;;;;;1.17;0.50;;;23.10;99.90;;;;;;5009273;28;20179;-82
2021/09/13 12:14:31;;;;;;;0.80;0.50;;;22.90;99.90;;;;;;5015521;28;20213;-81
2021/09/13 12:17:13;;;;;;;2.70;0.67;;;22.80;99.90;;;;;;5008701;28;20231;-79
2021/09/13 12:19:44;;;;;;;0.80;0.75;;;22.90;99.90;;;;;;5017839;28;20288;-81
2021/09/13 12:22:10;;;;;;;1.30;0.60;;;22.60;99.90;;;;;;5001615;28;20186;-81
2021/09/13 12:24:36;;;;;;;0.80;0.50;;;22.30;99.90;;;;;;4981730;28;20187;-81
2021/09/13 12:27:16;;;;;;;1.30;0.70;;;22.00;99.90;;;;;;5001116;28;20709;-81
2021/09/13 12:30:01;;;;;;;1.03;0.80;;;21.80;99.90;;;;;;4998073;28;20553;-81
2021/09/13 12:32:31;;;;;;;1.80;0.80;;;21.60;99.90;;;;;;5022718;28;20206;-81
2021/09/13 12:35:02;;;;;;;3.17;0.90;;;21.40;99.90;;;;;;5016197;28;20210;-81
2021/09/13 12:37:34;;;;;;;1.33;0.70;;;21.30;99.90;;;;;;5000861;28;20278;-81
2021/09/13 12:40:12;;;;;;;1.83;0.70;;;21.10;99.90;;;;;;5017261;28;20190;-79
2021/09/13 12:42:51;;;;;;;4.27;0.80;;;21.10;99.90;;;;;;4987147;28;20188;-81
2021/09/13 12:45:17;;;;;;;3.40;0.73;;;21.10;99.90;;;;;;5010245;28;20222;-79
2021/09/13 12:48:21;;;;;;;0.90;0.80;;;21.00;99.90;;;;;;4980650;28;20684;-82
2021/09/13 12:50:47;;;;;;;2.07;1.00;;;20.90;99.90;;;;;;4991214;28;20196;-78
2021/09/13 12:53:26;;;;;;;1.60;0.90;;;20.80;99.90;;;;;;5010909;28;20187;-81